createdAt,value
2019-03-18T00:00:57.315Z,1006.86
2019-03-18T00:01:57.326Z,1006.92
2019-03-18T00:02:57.332Z,1006.90
2019-03-18T00:03:57.344Z,1006.88
2019-03-18T00:04:57.363Z,1006.90
2019-03-18T00:05:57.370Z,1006.92
2019-03-18T00:06:57.373Z,1006.94
2019-03-18T00:07:57.383Z,1006.88
2019-03-18T00:08:57.391Z,1006.95
2019-03-18T00:09:57.396Z,1006.94
2019-03-18T00:10:57.403Z,1006.93
2019-03-18T00:11:57.421Z,1006.98
2019-03-18T00:12:57.432Z,1006.97
2019-03-18T00:13:57.437Z,1006.94
2019-03-18T00:15:01.590Z,1006.93
2019-03-18T00:15:57.455Z,1006.91
2019-03-18T00:16:57.464Z,1006.89
2019-03-18T00:17:57.487Z,1006.92
2019-03-18T00:18:57.484Z,1006.88
2019-03-18T00:19:57.491Z,1006.92
2019-03-18T00:20:57.499Z,1006.95
2019-03-18T00:21:57.515Z,1006.95
2019-03-18T00:22:57.516Z,1006.90
2019-03-18T00:23:57.529Z,1006.94
2019-03-18T00:24:57.541Z,1006.94
2019-03-18T00:25:57.549Z,1006.94
2019-03-18T00:26:57.558Z,1006.93
2019-03-18T00:27:57.567Z,1006.94
2019-03-18T00:28:57.578Z,1006.96
2019-03-18T00:29:57.587Z,1006.96
2019-03-18T00:30:57.597Z,1006.99
2019-03-18T00:31:57.605Z,1007.01
2019-03-18T00:32:57.614Z,1007.04
2019-03-18T00:33:57.626Z,1007.00
2019-03-18T00:34:57.637Z,1007.06
2019-03-18T00:35:57.641Z,1007.04
2019-03-18T00:36:57.650Z,1007.06
2019-03-18T00:37:57.661Z,1007.03
2019-03-18T00:38:57.669Z,1007.00
2019-03-18T00:39:57.681Z,1007.05
2019-03-18T00:40:57.685Z,1007.05
2019-03-18T00:41:57.697Z,1007.05
2019-03-18T00:42:57.701Z,1007.18
2019-03-18T00:43:57.717Z,1007.15
2019-03-18T00:44:57.725Z,1007.13
2019-03-18T00:45:57.733Z,1007.13
2019-03-18T00:46:57.743Z,1007.14
2019-03-18T00:47:57.755Z,1007.20
2019-03-18T00:48:57.765Z,1007.12
2019-03-18T00:49:57.775Z,1007.22
2019-03-18T00:50:57.781Z,1007.21
2019-03-18T00:51:57.792Z,1007.22
2019-03-18T00:52:57.800Z,1007.23
2019-03-18T00:53:57.816Z,1007.24
2019-03-18T00:54:58.484Z,1007.21
2019-03-18T00:55:57.830Z,1007.27
2019-03-18T00:56:57.833Z,1007.24
2019-03-18T00:57:57.844Z,1007.26
2019-03-18T00:58:57.877Z,1007.28
2019-03-18T00:59:57.864Z,1007.26
2019-03-18T01:00:57.885Z,1007.28
2019-03-18T01:01:57.878Z,1007.27
2019-03-18T01:02:57.894Z,1007.25
2019-03-18T01:03:57.901Z,1007.27
2019-03-18T01:04:58.026Z,1007.27
2019-03-18T01:05:57.924Z,1007.30
2019-03-18T01:06:58.482Z,1007.28
2019-03-18T01:07:57.937Z,1007.28
2019-03-18T01:08:57.941Z,1007.32
2019-03-18T01:09:57.962Z,1007.31
2019-03-18T01:10:58.021Z,1007.33
2019-03-18T01:11:57.986Z,1007.32
2019-03-18T01:12:57.999Z,1007.32
2019-03-18T01:13:57.993Z,1007.34
2019-03-18T01:14:58.009Z,1007.38
2019-03-18T01:15:58.015Z,1007.28
2019-03-18T01:16:58.021Z,1007.33
2019-03-18T01:17:58.028Z,1007.36
2019-03-18T01:18:58.035Z,1007.37
2019-03-18T01:19:58.047Z,1007.39
2019-03-18T01:20:58.058Z,1007.44
2019-03-18T01:21:58.066Z,1007.36
2019-03-18T01:22:58.085Z,1007.39
2019-03-18T01:23:58.088Z,1007.37
2019-03-18T01:24:58.094Z,1007.41
2019-03-18T01:25:58.105Z,1007.41
2019-03-18T01:26:58.113Z,1007.44
2019-03-18T01:27:58.123Z,1007.45
2019-03-18T01:28:58.130Z,1007.47
2019-03-18T01:29:58.141Z,1007.43
2019-03-18T01:30:58.151Z,1007.41
2019-03-18T01:31:58.155Z,1007.41
2019-03-18T01:32:58.165Z,1007.43
2019-03-18T01:33:58.176Z,1007.41
2019-03-18T01:34:58.187Z,1007.44
2019-03-18T01:35:58.192Z,1007.45
2019-03-18T01:36:58.209Z,1007.41
2019-03-18T01:37:58.209Z,1007.38
2019-03-18T01:38:58.219Z,1007.36
2019-03-18T01:39:58.236Z,1007.46
2019-03-18T01:40:58.249Z,1007.38
2019-03-18T01:41:58.249Z,1007.44
2019-03-18T01:42:58.260Z,1007.46
2019-03-18T01:43:58.266Z,1007.41
2019-03-18T01:44:58.278Z,1007.42
2019-03-18T01:45:58.286Z,1007.42
2019-03-18T01:46:58.296Z,1007.48
2019-03-18T01:47:58.302Z,1007.51
2019-03-18T01:48:58.321Z,1007.52
2019-03-18T01:49:58.327Z,1007.52
2019-03-18T01:50:58.330Z,1007.51
2019-03-18T01:51:58.328Z,1007.47
2019-03-18T01:52:58.348Z,1007.48
2019-03-18T01:53:58.346Z,1007.49
2019-03-18T01:54:58.366Z,1007.47
2019-03-18T01:55:58.374Z,1007.45
2019-03-18T01:56:58.391Z,1007.49
2019-03-18T01:57:58.404Z,1007.46
2019-03-18T01:58:58.409Z,1007.42
2019-03-18T01:59:58.984Z,1007.46
2019-03-18T02:00:58.426Z,1007.41
2019-03-18T02:01:58.442Z,1007.39
2019-03-18T02:02:58.439Z,1007.32
2019-03-18T02:03:58.460Z,1007.36
2019-03-18T02:04:58.458Z,1007.33
2019-03-18T02:05:58.488Z,1007.34
2019-03-18T02:06:58.482Z,1007.37
2019-03-18T02:07:58.496Z,1007.43
2019-03-18T02:08:58.492Z,1007.40
2019-03-18T02:09:58.520Z,1007.36
2019-03-18T02:10:58.517Z,1007.34
2019-03-18T02:11:58.527Z,1007.38
2019-03-18T02:12:58.534Z,1007.33
2019-03-18T02:13:58.564Z,1007.37
2019-03-18T02:14:58.558Z,1007.36
2019-03-18T02:15:58.558Z,1007.39
2019-03-18T02:16:58.569Z,1007.45
2019-03-18T02:17:58.578Z,1007.38
2019-03-18T02:18:58.585Z,1007.41
2019-03-18T02:19:58.601Z,1007.49
2019-03-18T02:20:58.604Z,1007.48
2019-03-18T02:21:58.611Z,1007.54
2019-03-18T02:22:58.622Z,1007.49
2019-03-18T02:23:58.631Z,1007.57
2019-03-18T02:24:58.644Z,1007.60
2019-03-18T02:25:58.653Z,1007.53
2019-03-18T02:26:58.659Z,1007.61
2019-03-18T02:27:58.667Z,1007.58
2019-03-18T02:28:58.677Z,1007.62
2019-03-18T02:29:58.687Z,1007.60
2019-03-18T02:30:58.695Z,1007.58
2019-03-18T02:31:58.717Z,1007.54
2019-03-18T02:32:58.713Z,1007.56
2019-03-18T02:33:58.721Z,1007.55
2019-03-18T02:34:58.727Z,1007.54
2019-03-18T02:35:58.742Z,1007.52
2019-03-18T02:36:58.761Z,1007.51
2019-03-18T02:37:58.764Z,1007.50
2019-03-18T02:38:58.763Z,1007.51
2019-03-18T02:39:58.775Z,1007.55
2019-03-18T02:40:58.786Z,1007.55
2019-03-18T02:41:58.794Z,1007.57
2019-03-18T02:42:58.804Z,1007.61
2019-03-18T02:43:58.818Z,1007.62
2019-03-18T02:44:58.821Z,1007.62
2019-03-18T02:46:10.188Z,1007.57
2019-03-18T02:46:58.839Z,1007.64
2019-03-18T02:47:58.853Z,1007.61
2019-03-18T02:48:58.860Z,1007.57
2019-03-18T02:49:58.884Z,1007.57
2019-03-18T02:50:58.874Z,1007.53
2019-03-18T02:51:58.887Z,1007.59
2019-03-18T02:52:58.897Z,1007.54
2019-03-18T02:53:58.905Z,1007.54
2019-03-18T02:54:58.911Z,1007.57
2019-03-18T02:55:58.931Z,1007.54
2019-03-18T02:56:58.961Z,1007.57
2019-03-18T02:57:58.955Z,1007.52
2019-03-18T02:58:58.949Z,1007.52
2019-03-18T02:59:58.960Z,1007.49
2019-03-18T03:00:58.981Z,1007.53
2019-03-18T03:01:58.974Z,1007.58
2019-03-18T03:02:58.997Z,1007.55
2019-03-18T03:03:58.993Z,1007.59
2019-03-18T03:04:59.003Z,1007.60
2019-03-18T03:05:59.014Z,1007.58
2019-03-18T03:06:59.024Z,1007.58
2019-03-18T03:07:59.033Z,1007.59
2019-03-18T03:08:59.041Z,1007.60
2019-03-18T03:09:59.063Z,1007.61
2019-03-18T03:10:59.172Z,1007.55
2019-03-18T03:11:59.069Z,1007.56
2019-03-18T03:12:59.077Z,1007.59
2019-03-18T03:13:59.097Z,1007.59
2019-03-18T03:14:59.095Z,1007.52
2019-03-18T03:15:59.107Z,1007.57
2019-03-18T03:16:59.124Z,1007.58
2019-03-18T03:17:59.133Z,1007.61
2019-03-18T03:18:59.125Z,1007.60
2019-03-18T03:19:59.135Z,1007.63
2019-03-18T03:20:59.145Z,1007.63
2019-03-18T03:21:59.156Z,1007.56
2019-03-18T03:22:59.167Z,1007.54
2019-03-18T03:23:59.179Z,1007.56
2019-03-18T03:24:59.182Z,1007.58
2019-03-18T03:25:59.195Z,1007.55
2019-03-18T03:26:59.205Z,1007.54
2019-03-18T03:27:59.214Z,1007.56
2019-03-18T03:28:59.220Z,1007.51
2019-03-18T03:29:59.233Z,1007.50
2019-03-18T03:30:59.244Z,1007.46
2019-03-18T03:31:59.247Z,1007.49
2019-03-18T03:32:59.264Z,1007.48
2019-03-18T03:33:59.269Z,1007.46
2019-03-18T03:34:59.273Z,1007.54
2019-03-18T03:35:59.289Z,1007.59
2019-03-18T03:36:59.297Z,1007.55
2019-03-18T03:37:59.306Z,1007.58
2019-03-18T03:38:59.309Z,1007.54
2019-03-18T03:39:59.321Z,1007.58
2019-03-18T03:40:59.332Z,1007.53
2019-03-18T03:41:59.334Z,1007.51
2019-03-18T03:42:59.349Z,1007.61
2019-03-18T03:43:59.356Z,1007.64
2019-03-18T03:44:59.366Z,1007.64
2019-03-18T03:45:59.375Z,1007.70
2019-03-18T03:46:59.414Z,1007.72
2019-03-18T03:47:59.395Z,1007.78
2019-03-18T03:48:59.409Z,1007.82
2019-03-18T03:49:59.422Z,1007.86
2019-03-18T03:50:59.421Z,1007.83
2019-03-18T03:51:59.427Z,1007.88
2019-03-18T03:52:59.433Z,1007.80
2019-03-18T03:53:59.447Z,1007.83
2019-03-18T03:54:59.450Z,1007.87
2019-03-18T03:55:59.464Z,1007.83
2019-03-18T03:56:59.479Z,1007.84
2019-03-18T03:57:59.487Z,1007.81
2019-03-18T03:58:59.489Z,1007.86
2019-03-18T03:59:59.502Z,1007.90
2019-03-18T04:00:59.517Z,1007.94
2019-03-18T04:01:59.524Z,1007.90
2019-03-18T04:02:59.528Z,1007.86
2019-03-18T04:03:59.536Z,1007.92
2019-03-18T04:04:59.547Z,1007.98
2019-03-18T04:05:59.555Z,1007.92
2019-03-18T04:06:59.557Z,1007.93
2019-03-18T04:07:59.580Z,1007.95
2019-03-18T04:08:59.614Z,1007.97
2019-03-18T04:09:59.589Z,1007.96
2019-03-18T04:10:59.598Z,1007.98
2019-03-18T04:11:59.603Z,1007.99
2019-03-18T04:12:59.613Z,1008.01
2019-03-18T04:13:59.623Z,1007.97
2019-03-18T04:14:59.633Z,1008.05
2019-03-18T04:15:59.643Z,1008.03
2019-03-18T04:17:02.278Z,1008.05
2019-03-18T04:17:59.668Z,1007.99
2019-03-18T04:18:59.669Z,1008.06
2019-03-18T04:19:59.675Z,1008.09
2019-03-18T04:20:59.686Z,1008.10
2019-03-18T04:21:59.699Z,1008.08
2019-03-18T04:22:59.704Z,1008.16
2019-03-18T04:23:59.714Z,1008.22
2019-03-18T04:24:59.724Z,1008.16
2019-03-18T04:25:59.733Z,1008.22
2019-03-18T04:26:59.742Z,1008.23
2019-03-18T04:27:59.754Z,1008.22
2019-03-18T04:28:59.760Z,1008.21
2019-03-18T04:29:59.772Z,1008.26
2019-03-18T04:30:59.785Z,1008.32
2019-03-18T04:31:59.788Z,1008.36
2019-03-18T04:32:59.797Z,1008.38
2019-03-18T04:33:59.803Z,1008.34
2019-03-18T04:34:59.811Z,1008.40
2019-03-18T04:35:59.827Z,1008.46
2019-03-18T04:36:59.831Z,1008.48
2019-03-18T04:37:59.842Z,1008.52
2019-03-18T04:38:59.861Z,1008.49
2019-03-18T04:39:59.870Z,1008.52
2019-03-18T04:40:59.868Z,1008.47
2019-03-18T04:41:59.890Z,1008.57
2019-03-18T04:42:59.889Z,1008.56
2019-03-18T04:43:59.899Z,1008.54
2019-03-18T04:44:59.901Z,1008.58
2019-03-18T04:45:59.915Z,1008.63
2019-03-18T04:47:00.499Z,1008.58
2019-03-18T04:47:59.935Z,1008.66
2019-03-18T04:48:59.943Z,1008.65
2019-03-18T04:49:59.960Z,1008.61
2019-03-18T04:50:59.972Z,1008.67
2019-03-18T04:51:59.967Z,1008.71
2019-03-18T04:53:00.105Z,1008.68
2019-03-18T04:53:59.992Z,1008.74
2019-03-18T04:55:00.005Z,1008.72
2019-03-18T04:56:00.011Z,1008.77
2019-03-18T04:57:00.015Z,1008.79
2019-03-18T04:58:00.025Z,1008.82
2019-03-18T04:59:00.053Z,1008.87
2019-03-18T05:00:00.045Z,1008.87
2019-03-18T05:01:00.067Z,1008.88
2019-03-18T05:02:00.066Z,1008.94
2019-03-18T05:03:00.089Z,1008.95
2019-03-18T05:04:00.089Z,1008.93
2019-03-18T05:05:00.117Z,1008.94
2019-03-18T05:06:00.107Z,1008.98
2019-03-18T05:07:00.115Z,1008.96
2019-03-18T05:08:00.127Z,1008.99
2019-03-18T05:09:00.130Z,1008.91
2019-03-18T05:10:00.347Z,1008.95
2019-03-18T05:11:00.151Z,1008.88
2019-03-18T05:12:00.160Z,1008.87
2019-03-18T05:13:00.170Z,1008.84
2019-03-18T05:14:00.183Z,1008.90
2019-03-18T05:15:00.358Z,1008.96
2019-03-18T05:16:00.194Z,1008.96
2019-03-18T05:17:00.204Z,1008.97
2019-03-18T05:18:00.223Z,1009.04
2019-03-18T05:19:00.225Z,1009.05
2019-03-18T05:20:00.387Z,1009.00
2019-03-18T05:21:00.243Z,1009.04
2019-03-18T05:22:00.256Z,1009.05
2019-03-18T05:23:00.258Z,1009.06
2019-03-18T05:24:00.274Z,1009.11
2019-03-18T05:25:00.338Z,1009.13
2019-03-18T05:26:00.292Z,1009.16
2019-03-18T05:27:00.308Z,1009.22
2019-03-18T05:28:00.309Z,1009.22
2019-03-18T05:29:00.315Z,1009.16
2019-03-18T05:30:00.390Z,1009.24
2019-03-18T05:31:00.335Z,1009.20
2019-03-18T05:32:00.349Z,1009.24
2019-03-18T05:33:00.359Z,1009.28
2019-03-18T05:34:00.372Z,1009.22
2019-03-18T05:35:00.396Z,1009.23
2019-03-18T05:36:00.387Z,1009.23
2019-03-18T05:37:00.396Z,1009.23
2019-03-18T05:38:00.406Z,1009.22
2019-03-18T05:39:00.420Z,1009.23
2019-03-18T05:40:00.496Z,1009.29
2019-03-18T05:41:00.433Z,1009.31
2019-03-18T05:42:00.445Z,1009.31
2019-03-18T05:43:00.452Z,1009.32
2019-03-18T05:44:00.531Z,1009.32
2019-03-18T05:45:00.483Z,1009.29
2019-03-18T05:46:00.489Z,1009.38
2019-03-18T05:47:00.493Z,1009.42
2019-03-18T05:48:00.506Z,1009.43
2019-03-18T05:49:00.502Z,1009.44
2019-03-18T05:50:00.530Z,1009.43
2019-03-18T05:51:00.523Z,1009.53
2019-03-18T05:52:00.615Z,1009.53
2019-03-18T05:53:00.541Z,1009.53
2019-03-18T05:54:00.618Z,1009.55
2019-03-18T05:55:00.565Z,1009.61
2019-03-18T05:56:00.572Z,1009.56
2019-03-18T05:57:00.581Z,1009.58
2019-03-18T05:58:00.599Z,1009.66
2019-03-18T05:59:00.600Z,1009.71
2019-03-18T06:00:00.660Z,1009.73
2019-03-18T06:01:00.619Z,1009.69
2019-03-18T06:02:00.639Z,1009.75
2019-03-18T06:03:00.649Z,1009.74
2019-03-18T06:04:00.657Z,1009.78
2019-03-18T06:05:00.663Z,1009.67
2019-03-18T06:06:00.675Z,1009.65
2019-03-18T06:07:00.684Z,1009.71
2019-03-18T06:08:00.687Z,1009.76
2019-03-18T06:09:00.700Z,1009.72
2019-03-18T06:10:00.705Z,1009.69
2019-03-18T06:11:00.716Z,1009.73
2019-03-18T06:12:00.721Z,1009.67
2019-03-18T06:13:00.737Z,1009.81
2019-03-18T06:14:00.754Z,1009.76
2019-03-18T06:15:00.749Z,1009.81
2019-03-18T06:16:00.761Z,1009.85
2019-03-18T06:17:00.775Z,1009.84
2019-03-18T06:18:00.779Z,1009.83
2019-03-18T06:19:00.789Z,1009.89
2019-03-18T06:20:00.799Z,1009.87
2019-03-18T06:21:00.815Z,1009.82
2019-03-18T06:22:00.814Z,1009.84
2019-03-18T06:23:00.825Z,1009.90
2019-03-18T06:24:00.834Z,1009.87
2019-03-18T06:25:00.849Z,1009.94
2019-03-18T06:26:00.853Z,1009.94
2019-03-18T06:27:00.863Z,1010.00
2019-03-18T06:28:00.880Z,1010.02
2019-03-18T06:29:00.881Z,1010.05
2019-03-18T06:30:00.893Z,1010.06
2019-03-18T06:31:00.905Z,1010.10
2019-03-18T06:32:00.911Z,1010.06
2019-03-18T06:33:00.921Z,1010.09
2019-03-18T06:34:00.934Z,1010.19
2019-03-18T06:35:00.941Z,1010.14
2019-03-18T06:36:00.952Z,1010.19
2019-03-18T06:37:00.975Z,1010.18
2019-03-18T06:38:00.972Z,1010.20
2019-03-18T06:39:00.980Z,1010.25
2019-03-18T06:40:00.992Z,1010.29
2019-03-18T06:41:01.001Z,1010.24
2019-03-18T06:42:01.008Z,1010.30
2019-03-18T06:43:01.016Z,1010.30
2019-03-18T06:44:01.028Z,1010.31
2019-03-18T06:45:01.034Z,1010.37
2019-03-18T06:46:01.047Z,1010.33
2019-03-18T06:47:01.055Z,1010.41
2019-03-18T06:48:05.175Z,1010.45
2019-03-18T06:49:01.080Z,1010.42
2019-03-18T06:50:01.087Z,1010.39
2019-03-18T06:51:01.096Z,1010.45
2019-03-18T06:52:01.114Z,1010.47
2019-03-18T06:53:01.115Z,1010.47
2019-03-18T06:54:01.127Z,1010.45
2019-03-18T06:55:01.131Z,1010.48
2019-03-18T06:56:01.141Z,1010.48
2019-03-18T06:57:01.148Z,1010.51
2019-03-18T06:58:01.158Z,1010.41
2019-03-18T06:59:01.169Z,1010.45
2019-03-18T07:00:01.181Z,1010.50
2019-03-18T07:01:01.188Z,1010.52
2019-03-18T07:02:01.203Z,1010.55
2019-03-18T07:03:01.216Z,1010.51
2019-03-18T07:04:01.216Z,1010.53
2019-03-18T07:05:01.226Z,1010.59
2019-03-18T07:06:01.241Z,1010.57
2019-03-18T07:07:01.252Z,1010.59
2019-03-18T07:08:01.263Z,1010.61
2019-03-18T07:09:01.271Z,1010.60
2019-03-18T07:10:01.281Z,1010.61
2019-03-18T07:11:01.290Z,1010.63
2019-03-18T07:12:01.295Z,1010.61
2019-03-18T07:13:01.320Z,1010.65
2019-03-18T07:14:01.323Z,1010.66
2019-03-18T07:15:01.329Z,1010.70
2019-03-18T07:16:01.338Z,1010.69
2019-03-18T07:17:01.349Z,1010.68
2019-03-18T07:18:01.359Z,1010.66
2019-03-18T07:19:01.368Z,1010.68
2019-03-18T07:20:01.381Z,1010.68
2019-03-18T07:21:01.390Z,1010.73
2019-03-18T07:22:01.395Z,1010.71
2019-03-18T07:23:01.410Z,1010.70
2019-03-18T07:24:01.418Z,1010.77
2019-03-18T07:25:01.427Z,1010.70
2019-03-18T07:26:01.437Z,1010.76
2019-03-18T07:27:01.447Z,1010.76
2019-03-18T07:28:01.462Z,1010.81
2019-03-18T07:29:01.468Z,1010.78
2019-03-18T07:30:01.478Z,1010.78
2019-03-18T07:31:01.490Z,1010.89
2019-03-18T07:32:01.498Z,1010.92
2019-03-18T07:33:01.512Z,1010.89
2019-03-18T07:34:01.517Z,1010.90
2019-03-18T07:35:01.525Z,1010.96
2019-03-18T07:36:01.537Z,1010.92
2019-03-18T07:37:01.547Z,1010.96
2019-03-18T07:38:01.559Z,1010.96
2019-03-18T07:39:01.568Z,1010.98
2019-03-18T07:40:01.576Z,1010.97
2019-03-18T07:41:01.591Z,1010.96
2019-03-18T07:42:01.597Z,1011.01
2019-03-18T07:43:01.609Z,1011.06
2019-03-18T07:44:01.626Z,1011.02
2019-03-18T07:45:01.637Z,1011.06
2019-03-18T07:46:01.646Z,1011.06
2019-03-18T07:47:01.647Z,1011.12
2019-03-18T07:48:01.662Z,1011.13
2019-03-18T07:49:01.669Z,1011.13
2019-03-18T07:50:01.685Z,1011.19
2019-03-18T07:51:01.691Z,1011.17
2019-03-18T07:52:01.701Z,1011.23
2019-03-18T07:53:01.714Z,1011.26
2019-03-18T07:54:01.727Z,1011.31
2019-03-18T07:55:01.732Z,1011.29
2019-03-18T07:56:01.746Z,1011.42
2019-03-18T07:57:01.756Z,1011.37
2019-03-18T07:58:01.762Z,1011.44
2019-03-18T07:59:01.774Z,1011.52
2019-03-18T08:00:01.787Z,1011.49
2019-03-18T08:01:01.902Z,1011.51
2019-03-18T08:02:01.812Z,1011.51
2019-03-18T08:03:03.451Z,1011.55
2019-03-18T08:04:01.820Z,1011.50
2019-03-18T08:05:01.847Z,1011.55
2019-03-18T08:06:01.848Z,1011.51
2019-03-18T08:07:01.860Z,1011.52
2019-03-18T08:08:01.878Z,1011.61
2019-03-18T08:09:01.881Z,1011.65
2019-03-18T08:10:01.888Z,1011.77
2019-03-18T08:11:01.900Z,1011.69
2019-03-18T08:12:01.915Z,1011.70
2019-03-18T08:13:01.927Z,1011.70
2019-03-18T08:14:01.929Z,1011.70
2019-03-18T08:15:01.948Z,1011.72
2019-03-18T08:16:01.953Z,1011.69
2019-03-18T08:17:01.964Z,1011.71
2019-03-18T08:18:01.975Z,1011.78
2019-03-18T08:19:01.991Z,1011.77
2019-03-18T08:20:03.295Z,1011.81
2019-03-18T08:21:02.547Z,1011.73
2019-03-18T08:22:02.034Z,1011.73
2019-03-18T08:23:02.111Z,1011.82
2019-03-18T08:24:02.039Z,1011.77
2019-03-18T08:25:02.062Z,1011.81
2019-03-18T08:26:02.072Z,1011.83
2019-03-18T08:27:02.206Z,1011.92
2019-03-18T08:28:02.083Z,1011.95
2019-03-18T08:29:02.115Z,1011.86
2019-03-18T08:30:02.109Z,1011.96
2019-03-18T08:31:02.242Z,1011.93
2019-03-18T08:32:02.132Z,1011.91
2019-03-18T08:33:02.152Z,1011.92
2019-03-18T08:34:02.154Z,1012.00
2019-03-18T08:35:02.226Z,1012.02
2019-03-18T08:36:02.171Z,1012.01
2019-03-18T08:37:02.193Z,1012.08
2019-03-18T08:38:02.193Z,1012.02
2019-03-18T08:39:02.216Z,1012.05
2019-03-18T08:40:02.241Z,1012.01
2019-03-18T08:41:02.231Z,1012.01
2019-03-18T08:42:02.244Z,1011.99
2019-03-18T08:43:02.254Z,1011.99
2019-03-18T08:44:02.261Z,1012.00
2019-03-18T08:45:02.281Z,1012.03
2019-03-18T08:46:02.294Z,1012.10
2019-03-18T08:47:02.301Z,1012.10
2019-03-18T08:48:02.309Z,1012.12
2019-03-18T08:49:02.320Z,1012.14
2019-03-18T08:50:02.339Z,1012.10
2019-03-18T08:51:02.343Z,1012.08
2019-03-18T08:52:02.354Z,1012.15
2019-03-18T08:53:02.369Z,1012.11
2019-03-18T08:54:02.379Z,1012.14
2019-03-18T08:55:02.387Z,1012.21
2019-03-18T08:56:02.403Z,1012.14
2019-03-18T08:57:02.416Z,1012.13
2019-03-18T08:58:02.424Z,1012.14
2019-03-18T08:59:02.440Z,1012.18
2019-03-18T09:00:02.448Z,1012.19
2019-03-18T09:01:02.460Z,1012.19
2019-03-18T09:02:02.475Z,1012.27
2019-03-18T09:03:02.496Z,1012.22
2019-03-18T09:04:02.497Z,1012.24
2019-03-18T09:05:02.512Z,1012.25
2019-03-18T09:06:02.513Z,1012.24
2019-03-18T09:07:02.527Z,1012.32
2019-03-18T09:08:02.627Z,1012.32
2019-03-18T09:09:02.618Z,1012.31
2019-03-18T09:10:02.583Z,1012.29
2019-03-18T09:11:02.575Z,1012.31
2019-03-18T09:12:02.645Z,1012.28
2019-03-18T09:13:02.597Z,1012.30
2019-03-18T09:14:02.715Z,1012.29
2019-03-18T09:15:02.620Z,1012.32
2019-03-18T09:16:02.647Z,1012.42
2019-03-18T09:17:02.653Z,1012.40
2019-03-18T09:18:02.656Z,1012.35
2019-03-18T09:19:08.641Z,1012.41
2019-03-18T09:20:02.677Z,1012.37
2019-03-18T09:21:02.693Z,1012.34
2019-03-18T09:22:02.721Z,1012.39
2019-03-18T09:23:02.717Z,1012.38
2019-03-18T09:24:02.727Z,1012.39
2019-03-18T09:25:02.739Z,1012.41
2019-03-18T09:26:02.752Z,1012.36
2019-03-18T09:27:02.924Z,1012.34
2019-03-18T09:28:02.779Z,1012.37
2019-03-18T09:29:02.789Z,1012.28
2019-03-18T09:30:02.799Z,1012.42
2019-03-18T09:31:02.811Z,1012.35
2019-03-18T09:32:02.823Z,1012.32
2019-03-18T09:33:02.839Z,1012.37
2019-03-18T09:34:02.841Z,1012.48
2019-03-18T09:35:02.859Z,1012.56
2019-03-18T09:36:02.869Z,1012.51
2019-03-18T09:37:02.882Z,1012.59
2019-03-18T09:38:02.896Z,1012.55
2019-03-18T09:39:02.903Z,1012.54
2019-03-18T09:40:02.912Z,1012.65
2019-03-18T09:41:02.925Z,1012.58
2019-03-18T09:42:02.944Z,1012.62
2019-03-18T09:43:02.947Z,1012.65
2019-03-18T09:44:02.958Z,1012.61
2019-03-18T09:45:02.974Z,1012.66
2019-03-18T09:46:02.985Z,1012.63
2019-03-18T09:47:02.996Z,1012.70
2019-03-18T09:48:03.008Z,1012.78
2019-03-18T09:49:03.020Z,1012.64
2019-03-18T09:50:03.039Z,1012.62
2019-03-18T09:51:03.043Z,1012.65
2019-03-18T09:52:03.064Z,1012.70
2019-03-18T09:53:03.070Z,1012.76
2019-03-18T09:54:03.083Z,1012.72
2019-03-18T09:55:03.092Z,1012.74
2019-03-18T09:56:03.105Z,1012.82
2019-03-18T09:57:03.123Z,1012.73
2019-03-18T09:58:03.142Z,1012.74
2019-03-18T09:59:03.146Z,1012.73
2019-03-18T10:00:03.151Z,1012.77
2019-03-18T10:01:03.169Z,1012.68
2019-03-18T10:02:03.182Z,1012.88
2019-03-18T10:03:03.196Z,1012.99
2019-03-18T10:04:03.205Z,1012.73
2019-03-18T10:05:03.220Z,1012.72
2019-03-18T10:06:03.257Z,1012.79
2019-03-18T10:07:03.247Z,1013.77
2019-03-18T10:08:03.259Z,1013.59
2019-03-18T10:09:03.275Z,1013.50
2019-03-18T10:10:03.290Z,1013.93
2019-03-18T10:11:03.309Z,1013.66
2019-03-18T10:12:03.313Z,1013.58
2019-03-18T10:13:03.323Z,1013.63
2019-03-18T10:14:03.362Z,1014.48
2019-03-18T10:15:03.350Z,1013.60
2019-03-18T10:16:03.369Z,1013.91
2019-03-18T10:17:09.589Z,1013.73
2019-03-18T10:18:03.401Z,1013.89
2019-03-18T10:19:03.409Z,1013.64
2019-03-18T10:20:03.429Z,1013.64
2019-03-18T10:21:03.447Z,1013.67
2019-03-18T10:22:03.460Z,1014.39
2019-03-18T10:23:03.481Z,1013.83
2019-03-18T10:24:03.494Z,1013.93
2019-03-18T10:25:04.433Z,1013.85
2019-03-18T10:26:03.525Z,1013.76
2019-03-18T10:27:03.535Z,1013.87
2019-03-18T10:28:03.546Z,1012.88
2019-03-18T10:29:03.568Z,1013.19
2019-03-18T10:30:03.586Z,1013.90
2019-03-18T10:31:03.607Z,1012.78
2019-03-18T10:32:03.616Z,1012.84
2019-03-18T10:33:03.635Z,1013.80
2019-03-18T10:34:03.650Z,1013.31
2019-03-18T10:35:03.663Z,1012.91
2019-03-18T10:36:03.675Z,1014.01
2019-03-18T10:37:03.695Z,1014.08
2019-03-18T10:38:03.709Z,1013.67
2019-03-18T10:39:03.729Z,1014.10
2019-03-18T10:40:03.749Z,1013.74
2019-03-18T10:41:03.759Z,1014.11
2019-03-18T10:42:03.778Z,1013.04
2019-03-18T10:43:03.792Z,1013.02
2019-03-18T10:44:03.813Z,1013.00
2019-03-18T10:45:03.821Z,1013.91
2019-03-18T10:46:03.849Z,1013.99
2019-03-18T10:47:03.862Z,1013.12
2019-03-18T10:48:03.888Z,1013.12
2019-03-18T10:49:03.889Z,1013.12
2019-03-18T10:50:03.905Z,1013.09
2019-03-18T10:51:03.918Z,1013.10
2019-03-18T10:52:03.973Z,1013.23
2019-03-18T10:53:03.989Z,1013.06
2019-03-18T10:54:03.964Z,1013.13
2019-03-18T10:55:03.981Z,1013.18
2019-03-18T10:56:07.980Z,1013.21
2019-03-18T10:57:04.017Z,1013.00
2019-03-18T10:58:04.029Z,1013.61
2019-03-18T10:59:04.039Z,1013.56
2019-03-18T11:00:04.048Z,1013.16
2019-03-18T11:01:04.074Z,1013.15
2019-03-18T11:02:04.080Z,1013.67
2019-03-18T11:03:04.115Z,1013.80
2019-03-18T11:04:04.111Z,1013.17
2019-03-18T11:05:04.154Z,1013.16
2019-03-18T11:06:04.138Z,1013.82
2019-03-18T11:07:04.153Z,1013.77
2019-03-18T11:08:04.167Z,1013.43
2019-03-18T11:09:04.185Z,1013.95
2019-03-18T11:10:04.197Z,1014.00
2019-03-18T11:11:04.215Z,1013.87
2019-03-18T11:12:04.254Z,1013.35
2019-03-18T11:13:04.245Z,1013.57
2019-03-18T11:14:04.266Z,1013.30
2019-03-18T11:15:04.276Z,1013.24
2019-03-18T11:16:04.289Z,1013.13
2019-03-18T11:17:04.308Z,1013.18
2019-03-18T11:18:04.339Z,1013.18
2019-03-18T11:19:04.343Z,1013.12
2019-03-18T11:20:04.354Z,1013.20
2019-03-18T11:21:04.369Z,1013.23
2019-03-18T11:22:04.382Z,1013.36
2019-03-18T11:23:04.395Z,1013.35
2019-03-18T11:24:04.416Z,1013.32
2019-03-18T11:25:04.424Z,1013.84
2019-03-18T11:26:04.450Z,1013.30
2019-03-18T11:27:04.454Z,1013.79
2019-03-18T11:28:04.474Z,1013.35
2019-03-18T11:29:05.802Z,1013.91
2019-03-18T11:30:04.502Z,1013.83
2019-03-18T11:31:04.520Z,1014.29
2019-03-18T11:32:04.534Z,1013.50
2019-03-18T11:33:04.542Z,1013.32
2019-03-18T11:34:04.562Z,1013.36
2019-03-18T11:35:04.570Z,1013.31
2019-03-18T11:36:04.593Z,1013.33
2019-03-18T11:37:04.615Z,1013.26
2019-03-18T11:38:04.610Z,1013.30
2019-03-18T11:39:04.641Z,1013.36
2019-03-18T11:40:04.645Z,1013.33
2019-03-18T11:41:04.665Z,1013.31
2019-03-18T11:42:04.686Z,1013.33
2019-03-18T11:43:04.694Z,1013.34
2019-03-18T11:44:04.854Z,1013.28
2019-03-18T11:45:04.727Z,1013.37
2019-03-18T11:46:04.858Z,1013.37
2019-03-18T11:47:04.753Z,1013.55
2019-03-18T11:48:04.775Z,1013.49
2019-03-18T11:49:04.778Z,1013.58
2019-03-18T11:50:10.886Z,1013.62
2019-03-18T11:51:04.805Z,1013.60
2019-03-18T11:52:04.890Z,1013.55
2019-03-18T11:53:13.704Z,1013.61
2019-03-18T11:54:04.855Z,1013.72
2019-03-18T11:55:05.044Z,1013.75
2019-03-18T11:56:04.873Z,1013.75
2019-03-18T11:57:04.892Z,1013.83
2019-03-18T11:58:04.901Z,1013.78
2019-03-18T11:59:04.916Z,1013.78
2019-03-18T12:00:04.930Z,1013.86
2019-03-18T12:01:04.939Z,1013.69
2019-03-18T12:02:04.950Z,1013.73
2019-03-18T12:03:04.963Z,1013.66
2019-03-18T12:04:04.977Z,1013.70
2019-03-18T12:05:04.989Z,1014.47
2019-03-18T12:06:04.999Z,1013.73